Time;durP1;ratioP1;P1;durP2;ratioP2;P2;SDS_P1;SDS_P2;PMS_P1;PMS_P2;Temp;Humidity;BMP_temperature;BMP_pressure;BME280_temperature;BME280_humidity;BME280_pressure;Samples;Min_cycle;Max_cycle;Signal;HPM_P1;HPM_P2
2021/11/24 04:33:36;;;;;;;9.60;7.10;;;;;;;1.55;55.36;99587.50;6796641;23;20626;-79
2021/11/24 04:36:57;;;;;;;9.63;6.87;;;;;;;1.01;56.21;99549.63;6807398;29;20221;-78
2021/11/24 04:40:19;;;;;;;7.43;6.73;;;;;;;1.16;56.15;99525.28;6807929;29;20302;-78
2021/11/24 04:43:43;;;;;;;8.43;7.00;;;;;;;1.57;56.41;99566.94;6783366;29;20226;-78
2021/11/24 04:47:05;;;;;;;10.87;8.97;;;;;;;1.45;55.53;99560.00;6781814;29;20211;-78
2021/11/24 04:50:28;;;;;;;17.40;9.47;;;;;;;1.49;55.71;99595.97;6783271;29;20831;-78
2021/11/24 04:53:50;;;;;;;13.37;9.13;;;;;;;1.30;55.37;99588.69;6783327;29;20203;-78
2021/11/24 04:57:11;;;;;;;11.83;8.10;;;;;;;1.15;55.27;99570.53;6781089;29;20246;-78
2021/11/24 05:00:33;;;;;;;12.67;8.50;;;;;;;1.44;55.13;99591.06;6782782;29;20227;-78
2021/11/24 05:03:55;;;;;;;9.53;7.50;;;;;;;1.25;55.57;99593.53;6782326;29;20243;-77
2021/11/24 05:07:18;;;;;;;10.87;8.50;;;;;;;1.13;55.89;99581.28;6780440;29;20593;-78
2021/11/24 05:10:40;;;;;;;11.13;8.13;;;;;;;1.27;55.66;99572.19;6782609;29;20238;-78
2021/11/24 05:14:03;;;;;;;9.70;8.00;;;;;;;1.18;55.00;99579.09;6781196;29;20247;-78
2021/11/24 05:17:26;;;;;;;8.63;7.30;;;;;;;0.87;56.00;99573.78;6781393;29;20223;-78
2021/11/24 05:20:48;;;;;;;9.03;7.97;;;;;;;0.93;57.16;99594.53;6781790;29;20868;-78
2021/11/24 05:24:13;;;;;;;12.83;9.17;;;;;;;0.77;56.21;99600.25;6781042;29;20231;-78
2021/11/24 05:27:35;;;;;;;11.20;7.87;;;;;;;1.15;56.19;99584.69;6782518;29;20667;-77
2021/11/24 05:30:56;;;;;;;13.20;8.73;;;;;;;0.97;57.25;99582.69;6779015;29;20268;-77
2021/11/24 05:34:18;;;;;;;11.40;7.70;;;;;;;0.86;57.07;99558.84;6784054;29;20212;-76
2021/11/24 05:37:40;;;;;;;12.23;7.67;;;;;;;1.32;56.59;99594.75;6807724;29;20213;-77
2021/11/24 05:41:03;;;;;;;9.07;8.13;;;;;;;1.36;56.36;99585.53;6808011;29;20801;-77
2021/11/24 05:44:25;;;;;;;11.63;7.97;;;;;;;1.14;57.20;99582.97;6806862;29;20233;-78
2021/11/24 05:47:57;;;;;;;12.67;8.40;;;;;;;1.26;56.49;99576.63;6790648;29;20282;-77
2021/11/24 05:51:19;;;;;;;12.03;8.30;;;;;;;0.94;57.36;99573.16;6780266;29;20238;-77
2021/11/24 05:54:41;;;;;;;9.93;8.07;;;;;;;1.40;57.29;99539.16;6780774;29;20568;-77
2021/11/24 05:58:04;;;;;;;9.47;8.03;;;;;;;1.16;57.59;99565.13;6781103;29;20232;-78
2021/11/24 06:01:25;;;;;;;10.13;8.07;;;;;;;1.44;56.68;99560.97;6781333;29;20234;-78
2021/11/24 06:04:47;;;;;;;11.73;8.13;;;;;;;2.05;56.23;99560.06;6780928;29;20239;-78
2021/11/24 06:08:08;;;;;;;12.27;10.07;;;;;;;1.16;58.51;99549.19;6780800;29;20216;-78
2021/11/24 06:11:30;;;;;;;11.60;8.53;;;;;;;1.86;57.69;99560.81;6781646;29;20231;-77
2021/11/24 06:14:53;;;;;;;13.10;9.77;;;;;;;2.11;58.04;99549.72;6780369;29;20222;-78
2021/11/24 06:18:15;;;;;;;16.40;11.23;;;;;;;2.06;59.35;99553.78;6781353;29;20211;-78
2021/11/24 06:21:36;;;;;;;21.67;13.10;;;;;;;2.54;58.44;99536.16;6781182;29;20235;-78
2021/11/24 06:24:58;;;;;;;19.83;12.60;;;;;;;2.40;59.65;99528.53;6780669;29;20278;-78
2021/11/24 06:28:20;;;;;;;23.13;13.13;;;;;;;2.35;60.46;99542.25;6782220;29;20657;-79
2021/11/24 06:31:43;;;;;;;22.23;14.37;;;;;;;2.93;59.68;99524.53;6780917;29;20269;-78
2021/11/24 06:35:05;;;;;;;19.83;14.10;;;;;;;3.26;59.02;99527.59;6780493;29;20203;-77
2021/11/24 06:38:27;;;;;;;21.53;14.67;;;;;;;3.02;59.58;99527.19;6781359;29;20603;-77
2021/11/24 06:41:48;;;;;;;20.07;13.87;;;;;;;3.23;58.54;99527.91;6781058;29;20235;-77
2021/11/24 06:45:11;;;;;;;25.00;15.47;;;;;;;3.12;59.27;99517.41;6784351;29;20230;-77
2021/11/24 06:48:34;;;;;;;30.27;16.50;;;;;;;3.25;61.77;99522.44;6785722;29;20211;-77
2021/11/24 06:51:56;;;;;;;26.40;16.87;;;;;;;3.59;62.84;99543.16;6785245;29;20329;-77
2021/11/24 06:55:17;;;;;;;25.23;15.97;;;;;;;3.54;62.82;99533.91;6786886;29;20261;-77
2021/11/24 06:58:39;;;;;;;26.60;14.50;;;;;;;4.32;61.82;99534.31;6793564;29;20585;-77
2021/11/24 07:02:01;;;;;;;27.10;16.00;;;;;;;4.18;62.33;99519.63;6786095;29;20594;-82
2021/11/24 07:05:23;;;;;;;28.60;16.20;;;;;;;4.09;63.00;99525.03;6786475;29;20242;-77
2021/11/24 07:08:45;;;;;;;26.10;14.60;;;;;;;4.16;62.89;99516.28;6787243;29;20211;-81
2021/11/24 07:12:08;;;;;;;28.57;17.73;;;;;;;3.88;63.70;99527.91;6805135;29;20222;-77
2021/11/24 07:15:30;;;;;;;26.90;16.20;;;;;;;4.24;63.01;99527.06;6812676;29;20202;-78
2021/11/24 07:18:51;;;;;;;26.20;16.53;;;;;;;4.45;63.01;99527.66;6812683;29;20214;-77
2021/11/24 07:22:14;;;;;;;24.63;15.97;;;;;;;4.75;61.85;99521.97;6797052;29;20238;-78
2021/11/24 07:25:36;;;;;;;27.87;15.10;;;;;;;4.82;60.75;99520.38;6784314;29;20231;-77
2021/11/24 07:28:58;;;;;;;25.13;16.53;;;;;;;4.55;62.21;99515.06;6785134;29;20227;-77
2021/11/24 07:32:19;;;;;;;24.23;15.77;;;;;;;4.26;62.47;99511.72;6784700;29;20239;-77
2021/11/24 07:35:41;;;;;;;24.90;16.00;;;;;;;4.59;62.55;99516.47;6783559;29;20672;-77
2021/11/24 07:39:04;;;;;;;27.90;16.17;;;;;;;4.99;61.23;99511.53;6798919;29;20213;-77
2021/11/24 07:42:26;;;;;;;23.93;16.07;;;;;;;4.43;62.43;99508.25;6810241;29;20738;-78
2021/11/24 07:45:50;;;;;;;22.57;15.53;;;;;;;4.48;63.48;99505.97;6809199;29;20325;-78
2021/11/24 07:49:12;;;;;;;25.03;16.30;;;;;;;4.60;62.57;99503.97;6798630;29;20207;-78
2021/11/24 07:52:34;;;;;;;26.13;16.57;;;;;;;5.22;61.33;99498.53;6784246;29;20261;-78
2021/11/24 07:55:57;;;;;;;24.93;15.20;;;;;;;5.71;59.97;99501.41;6783709;29;20819;-78
2021/11/24 07:59:19;;;;;;;23.50;14.60;;;;;;;6.00;58.90;99495.75;6783683;29;20215;-78
2021/11/24 08:02:41;;;;;;;21.07;15.07;;;;;;;6.05;58.42;99490.75;6783482;29;20234;-78
2021/11/24 08:06:03;;;;;;;25.40;15.33;;;;;;;5.88;58.83;99497.88;6783716;29;20262;-78
2021/11/24 08:09:24;;;;;;;19.80;14.83;;;;;;;5.90;58.88;99490.50;6783538;29;20255;-79
2021/11/24 08:12:47;;;;;;;21.70;15.23;;;;;;;6.52;58.21;99484.75;6783884;29;20238;-78
2021/11/24 08:16:09;;;;;;;21.37;14.90;;;;;;;6.09;57.35;99452.81;6784087;29;20203;-77
2021/11/24 08:19:31;;;;;;;20.00;14.90;;;;;;;6.53;57.74;99456.13;6783360;29;20207;-77
2021/11/24 08:22:52;;;;;;;21.00;13.83;;;;;;;7.78;54.54;99478.75;6783350;29;20230;-75
2021/11/24 08:26:14;;;;;;;16.20;12.73;;;;;;;9.37;49.51;99457.41;6795596;29;20561;-77
2021/11/24 08:29:37;;;;;;;18.03;12.77;;;;;;;9.56;48.02;99463.13;6812207;29;20242;-79
2021/11/24 08:32:59;;;;;;;19.20;13.10;;;;;;;9.11;48.47;99454.28;6790548;29;20241;-79
2021/11/24 08:36:21;;;;;;;15.80;12.47;;;;;;;8.11;51.33;99472.31;6784449;29;20210;-78
2021/11/24 08:39:42;;;;;;;17.80;13.13;;;;;;;8.16;52.14;99475.31;6784035;29;20211;-77
2021/11/24 08:43:04;;;;;;;17.13;12.93;;;;;;;8.19;51.79;99466.06;6782821;29;20233;-78
2021/11/24 08:46:28;;;;;;;17.37;13.33;;;;;;;7.57;53.33;99445.44;6784203;29;20310;-78
2021/11/24 08:49:49;;;;;;;16.73;12.10;;;;;;;7.65;52.43;99443.56;6783903;29;20561;-79
2021/11/24 08:53:11;;;;;;;15.83;12.60;;;;;;;8.07;54.93;99449.47;6783459;29;20227;-79
2021/11/24 08:56:34;;;;;;;17.37;12.63;;;;;;;7.85;53.43;99435.97;6781780;29;20226;-78
2021/11/24 08:59:56;;;;;;;17.80;13.37;;;;;;;7.32;55.91;99449.97;6783734;29;20583;-80
2021/11/24 09:03:21;;;;;;;19.40;15.47;;;;;;;7.11;54.66;99452.34;6771665;29;20228;-84
2021/11/24 09:06:42;;;;;;;23.43;16.73;;;;;;;6.66;59.77;99449.28;6786187;29;20206;-81
2021/11/24 09:10:07;;;;;;;23.10;16.00;;;;;;;6.54;58.75;99439.06;6793832;29;20208;-77
2021/11/24 09:13:28;;;;;;;21.27;13.93;;;;;;;6.95;56.69;99420.16;6785649;29;20227;-82
2021/11/24 09:16:51;;;;;;;17.47;14.17;;;;;;;7.32;55.66;99449.16;6796648;29;20207;-77
2021/11/24 09:20:14;;;;;;;22.40;16.53;;;;;;;7.53;57.80;99430.66;6797590;29;20210;-77
2021/11/24 09:23:38;;;;;;;21.10;13.97;;;;;;;7.14;57.46;99430.56;6799047;29;20714;-77
2021/11/24 09:27:03;;;;;;;19.17;12.80;;;;;;;7.48;56.11;99422.31;6799449;29;20239;-78
2021/11/24 09:30:25;;;;;;;18.90;13.73;;;;;;;7.54;55.12;99418.97;6808803;29;20207;-83
2021/11/24 09:33:47;;;;;;;15.30;12.23;;;;;;;8.96;52.96;99406.84;6792117;29;20211;-80
2021/11/24 09:37:10;;;;;;;15.00;11.37;;;;;;;9.04;50.48;99400.38;6783749;29;20213;-79
2021/11/24 09:40:32;;;;;;;19.60;14.07;;;;;;;8.41;53.39;99393.63;6785038;29;20239;-82
2021/11/24 09:43:56;;;;;;;26.37;19.20;;;;;;;8.59;55.44;99383.41;6785190;29;20250;-81
2021/11/24 09:47:18;;;;;;;15.33;11.77;;;;;;;8.35;53.41;99383.56;6785073;29;20217;-83
2021/11/24 09:50:39;;;;;;;13.83;11.10;;;;;;;9.41;50.17;99343.03;6783140;29;20234;-83
2021/11/24 09:54:03;;;;;;;15.97;13.27;;;;;;;8.35;51.10;99380.03;6781859;29;20661;-79
2021/11/24 09:57:28;;;;;;;14.53;10.97;;;;;;;7.97;52.94;99356.72;6784511;29;20272;-77
2021/11/24 10:00:49;;;;;;;14.67;10.80;;;;;;;8.54;51.19;99360.78;6786756;29;20230;-78
2021/11/24 10:04:12;;;;;;;14.23;11.97;;;;;;;7.97;52.85;99343.31;6785250;29;20235;-77
2021/11/24 10:07:33;;;;;;;15.33;12.33;;;;;;;8.22;52.35;99340.34;6789290;29;20208;-77
2021/11/24 10:10:56;;;;;;;16.03;12.27;;;;;;;8.19;51.30;99343.34;6789766;29;20228;-78
2021/11/24 10:14:18;;;;;;;15.97;11.80;;;;;;;7.84;52.90;99346.53;6782511;29;20211;-77
2021/11/24 10:17:40;;;;;;;16.17;13.07;;;;;;;6.76;55.07;99318.66;6784925;29;20207;-82
2021/11/24 10:21:06;;;;;;;20.07;12.57;;;;;;;6.64;56.45;99337.91;6788546;29;20850;-78
2021/11/24 10:24:29;;;;;;;18.17;12.10;;;;;;;7.50;54.44;99321.88;6790103;29;20227;-83
2021/11/24 10:27:52;;;;;;;13.87;11.30;;;;;;;8.02;52.64;99314.09;6789985;29;20589;-82
2021/11/24 10:31:24;;;;;;;16.50;11.63;;;;;;;8.00;52.33;99306.19;6789544;29;20247;-78
2021/11/24 10:34:49;;;;;;;14.37;11.30;;;;;;;8.45;51.52;99276.72;6786574;29;20575;-77
2021/11/24 10:38:13;;;;;;;16.03;12.37;;;;;;;8.09;52.57;99288.19;6787635;29;20207;-78
2021/11/24 10:41:39;;;;;;;16.70;12.47;;;;;;;8.69;50.88;99289.09;6788970;29;20313;-79
2021/11/24 10:45:09;;;;;;;12.00;10.43;;;;;;;8.67;50.94;99267.75;6789365;29;20232;-82
2021/11/24 10:48:32;;;;;;;16.00;11.50;;;;;;;8.97;49.96;99268.66;6787375;29;20555;-78
2021/11/24 10:51:53;;;;;;;14.37;11.03;;;;;;;9.69;48.94;99253.31;6786137;29;20342;-78
2021/11/24 10:55:18;;;;;;;13.53;11.53;;;;;;;9.41;48.86;99249.66;6784958;29;20205;-78
2021/11/24 10:58:40;;;;;;;12.33;10.63;;;;;;;10.06;48.26;99236.19;6785065;29;20207;-78
2021/11/24 11:02:19;;;;;;;15.00;11.73;;;;;;;9.75;47.73;99239.09;6785083;29;20243;-78
2021/11/24 11:05:44;;;;;;;11.97;10.40;;;;;;;10.17;46.84;99238.38;6782709;29;20225;-78
2021/11/24 11:09:06;;;;;;;13.20;11.27;;;;;;;9.97;47.07;99231.88;6784540;29;20206;-78
2021/11/24 11:12:29;;;;;;;13.87;11.03;;;;;;;10.64;45.10;99217.03;6784279;29;20234;-78
2021/11/24 11:15:53;;;;;;;13.37;10.93;;;;;;;10.80;45.02;99211.34;6784565;29;20301;-79
2021/11/24 11:19:41;;;;;;;13.97;11.17;;;;;;;10.85;44.42;99195.38;6785205;29;20212;-78
2021/11/24 11:23:07;;;;;;;12.83;10.40;;;;;;;10.95;43.96;99199.41;6784651;29;20240;-78
2021/11/24 11:26:29;;;;;;;11.27;9.77;;;;;;;11.19;44.21;99196.25;6783692;29;20747;-78
2021/11/24 11:29:51;;;;;;;13.23;10.70;;;;;;;10.66;45.55;99205.03;6780997;29;20214;-78
2021/11/24 11:33:14;;;;;;;12.50;10.77;;;;;;;10.46;45.66;99203.19;6783437;29;20710;-78
2021/11/24 11:36:37;;;;;;;11.90;10.47;;;;;;;10.82;44.86;99193.94;6783426;29;20211;-78
2021/11/24 11:39:59;;;;;;;13.40;10.93;;;;;;;10.73;44.84;99188.88;6758230;29;20215;-78
2021/11/24 11:43:21;;;;;;;11.73;9.73;;;;;;;10.84;44.38;99181.09;6757995;29;20234;-78
2021/11/24 11:46:45;;;;;;;14.33;11.27;;;;;;;10.43;44.36;99168.53;6762194;29;20272;-78
2021/11/24 11:50:07;;;;;;;13.30;11.33;;;;;;;10.84;43.37;99155.97;6783735;29;20224;-77
2021/11/24 11:53:33;;;;;;;13.07;10.67;;;;;;;10.34;44.09;99161.63;6784067;29;20234;-80
2021/11/24 11:56:55;;;;;;;12.70;10.40;;;;;;;10.37;44.44;99102.78;6783061;29;20206;-78
2021/11/24 12:00:16;;;;;;;16.47;12.40;;;;;;;10.45;44.57;99145.75;6783799;29;20225;-77
2021/11/24 12:04:02;;;;;;;15.17;12.00;;;;;;;10.37;44.75;99132.41;6769840;29;20211;-77
2021/11/24 12:07:24;;;;;;;14.23;10.80;;;;;;;10.51;44.58;99130.66;6757291;29;20720;-79
2021/11/24 12:10:58;;;;;;;14.67;11.10;;;;;;;10.80;44.14;99127.75;6782083;29;20590;-78
2021/11/24 12:14:54;;;;;;;15.33;11.77;;;;;;;10.78;43.61;99117.13;6800374;29;20678;-78
2021/11/24 12:18:16;;;;;;;14.97;11.43;;;;;;;10.58;44.59;99088.41;6714687;29;20226;-78
2021/11/24 12:21:48;;;;;;;16.03;12.40;;;;;;;10.42;44.22;99073.38;6785027;29;20242;-80
2021/11/24 12:25:39;;;;;;;15.40;12.40;;;;;;;10.74;43.82;99090.78;6782549;29;20234;-78
2021/11/24 12:29:02;;;;;;;16.07;12.10;;;;;;;10.71;43.67;99083.91;6781336;29;20209;-78
2021/11/24 12:32:29;;;;;;;16.93;12.03;;;;;;;11.23;42.89;99078.72;6782501;29;20243;-77
2021/11/24 12:35:54;;;;;;;19.27;12.70;;;;;;;11.10;43.07;99065.19;6772633;29;20294;-78
2021/11/24 12:39:15;;;;;;;17.60;12.37;;;;;;;11.39;42.40;99074.84;6782867;29;20566;-77
2021/11/24 12:42:37;;;;;;;15.90;11.97;;;;;;;10.32;44.60;99069.34;6780072;29;20232;-77
2021/11/24 12:46:13;;;;;;;16.43;12.60;;;;;;;10.41;44.88;99062.78;6781566;29;20257;-78
2021/11/24 12:49:34;;;;;;;17.13;12.00;;;;;;;10.84;43.16;99065.09;6756251;29;20568;-78
2021/11/24 12:52:57;;;;;;;15.37;12.30;;;;;;;10.88;43.49;99031.31;6778607;29;20251;-80
2021/11/24 12:56:18;;;;;;;19.97;12.60;;;;;;;11.03;43.67;99053.56;6783671;29;20217;-83
2021/11/24 12:59:42;;;;;;;17.33;13.23;;;;;;;10.93;44.07;99036.09;6782743;29;20219;-78
2021/11/24 13:03:05;;;;;;;17.17;11.93;;;;;;;10.63;43.69;98995.09;6782261;29;20275;-77
2021/11/24 13:06:28;;;;;;;18.70;12.97;;;;;;;10.28;44.48;99043.84;6781303;29;20241;-78
2021/11/24 13:09:51;;;;;;;18.10;13.17;;;;;;;10.40;44.54;99044.94;6782724;29;20663;-79
2021/11/24 13:13:12;;;;;;;18.40;13.30;;;;;;;10.41;44.64;99038.53;6782210;29;20824;-78
2021/11/24 13:16:34;;;;;;;19.67;14.17;;;;;;;10.32;44.30;99040.53;6781364;29;20220;-78
2021/11/24 13:19:59;;;;;;;18.40;13.90;;;;;;;10.48;43.96;99020.50;6781421;29;20213;-78
2021/11/24 13:23:21;;;;;;;18.50;14.90;;;;;;;10.20;44.80;99025.94;6777926;29;20611;-78
2021/11/24 13:26:52;;;;;;;21.17;13.97;;;;;;;10.02;44.50;99005.88;6784125;29;20227;-78
2021/11/24 13:30:15;;;;;;;18.50;14.53;;;;;;;9.49;47.46;99023.47;6781663;29;20194;-79
2021/11/24 13:33:39;;;;;;;20.30;15.17;;;;;;;9.41;47.89;99012.00;6781534;29;20216;-78
2021/11/24 13:37:02;;;;;;;18.30;14.10;;;;;;;9.04;48.48;99006.88;6780567;29;20591;-78
2021/11/24 13:40:41;;;;;;;20.07;14.00;;;;;;;9.36;46.81;99015.28;6781241;29;20218;-77
2021/11/24 13:44:05;;;;;;;18.60;13.40;;;;;;;9.07;48.37;98993.03;6781166;29;20264;-77
2021/11/24 13:47:29;;;;;;;19.33;13.87;;;;;;;8.96;48.78;99004.28;6781471;29;20237;-78
2021/11/24 13:50:58;;;;;;;18.87;13.93;;;;;;;8.82;48.70;99010.56;6780936;29;20272;-77
2021/11/24 13:54:21;;;;;;;21.03;13.90;;;;;;;7.90;50.62;99004.91;6785569;29;20208;-77
2021/11/24 13:57:43;;;;;;;17.03;12.80;;;;;;;7.80;50.79;99000.81;6768663;29;20576;-77
2021/11/24 14:01:16;;;;;;;18.17;13.23;;;;;;;7.74;49.92;98947.88;6769193;29;20228;-79
2021/11/24 14:04:40;;;;;;;19.90;14.70;;;;;;;8.11;49.68;99006.88;6794362;29;20212;-77
2021/11/24 14:08:02;;;;;;;18.50;12.87;;;;;;;7.63;50.78;98991.25;6791701;29;20220;-77
2021/11/24 14:11:28;;;;;;;19.40;13.43;;;;;;;7.72;51.20;98996.38;6787498;29;20223;-80
2021/11/24 14:14:59;;;;;;;17.43;12.97;;;;;;;8.27;49.88;98996.84;6790796;29;20203;-76
2021/11/24 14:18:20;;;;;;;18.50;13.17;;;;;;;7.83;50.47;98995.91;6788580;29;20284;-78
2021/11/24 14:21:53;;;;;;;19.57;13.63;;;;;;;7.75;51.01;98981.75;6795002;29;20282;-81
2021/11/24 14:25:16;;;;;;;18.30;13.23;;;;;;;7.86;49.96;98955.31;6767578;29;20219;-79
2021/11/24 14:28:39;;;;;;;15.67;11.77;;;;;;;7.57;50.19;99000.03;6789798;29;20211;-78
2021/11/24 14:32:04;;;;;;;19.80;12.77;;;;;;;7.56;50.48;98990.31;6785755;29;20239;-78
2021/11/24 14:35:27;;;;;;;17.13;12.63;;;;;;;7.46;50.49;98984.38;6786889;29;20321;-80
2021/11/24 14:38:49;;;;;;;17.03;12.53;;;;;;;7.10;51.19;98951.16;6786398;29;20575;-80
2021/11/24 14:42:10;;;;;;;16.27;11.73;;;;;;;7.56;50.87;98987.66;6785635;29;20239;-80
2021/11/24 14:45:34;;;;;;;17.37;12.23;;;;;;;7.83;49.73;98981.69;6788149;29;20233;-79
2021/11/24 14:48:56;;;;;;;15.77;11.67;;;;;;;6.50;52.00;98948.41;6788971;29;20226;-80
2021/11/24 14:52:18;;;;;;;17.60;11.80;;;;;;;6.83;52.26;98976.66;6785958;29;20235;-81
2021/11/24 14:55:40;;;;;;;20.70;13.90;;;;;;;6.77;51.69;98977.34;6788849;29;20204;-81
2021/11/24 14:59:01;;;;;;;20.97;13.33;;;;;;;5.92;52.07;98875.75;6788918;29;20214;-82
2021/11/24 15:02:24;;;;;;;20.20;12.97;;;;;;;6.35;53.13;98984.09;6786488;29;20222;-78
2021/11/24 15:05:46;;;;;;;20.20;13.50;;;;;;;6.65;51.79;98959.16;6785833;29;20243;-79
2021/11/24 15:09:08;;;;;;;18.30;12.67;;;;;;;6.66;52.03;98960.88;6787820;29;20216;-79
2021/11/24 15:12:29;;;;;;;18.83;12.83;;;;;;;6.52;52.58;98962.44;6789938;29;20231;-82
2021/11/24 15:15:51;;;;;;;18.67;12.43;;;;;;;6.49;52.81;98964.63;6785998;29;20225;-78
2021/11/24 15:19:16;;;;;;;19.93;12.83;;;;;;;6.15;52.83;98922.16;6792240;29;20680;-82
2021/11/24 15:22:38;;;;;;;18.67;12.97;;;;;;;6.33;53.49;98960.19;6794117;29;20254;-78
2021/11/24 15:26:00;;;;;;;24.07;14.13;;;;;;;6.49;52.54;98973.50;6785259;29;20227;-80
2021/11/24 15:29:22;;;;;;;21.53;13.67;;;;;;;6.02;53.31;98956.63;6786145;29;20569;-78
2021/11/24 15:32:44;;;;;;;20.53;13.50;;;;;;;5.92;54.43;98972.06;6785729;29;20234;-78
2021/11/24 15:36:07;;;;;;;20.40;13.73;;;;;;;5.80;54.74;98964.56;6787650;29;20214;-77
2021/11/24 15:39:29;;;;;;;22.63;13.17;;;;;;;5.90;54.43;98957.19;6785396;29;20661;-76
2021/11/24 15:42:51;;;;;;;25.70;14.27;;;;;;;6.58;53.28;98959.06;6785294;29;20235;-78
2021/11/24 15:46:14;;;;;;;20.17;13.03;;;;;;;6.55;53.45;98955.91;6784468;29;20230;-79
2021/11/24 15:49:40;;;;;;;21.27;13.17;;;;;;;6.54;52.59;98947.00;6784990;29;20216;-80
2021/11/24 15:53:03;;;;;;;20.60;13.60;;;;;;;6.30;53.70;98957.03;6786929;29;20224;-79
2021/11/24 15:56:25;;;;;;;19.93;13.70;;;;;;;6.17;54.37;98949.56;6783311;29;20207;-79
2021/11/24 15:59:47;;;;;;;24.33;14.60;;;;;;;5.28;54.66;98932.06;6782898;29;20212;-78
2021/11/24 16:03:08;;;;;;;22.10;14.07;;;;;;;5.90;55.38;98941.13;6783557;29;20271;-80
2021/11/24 16:06:31;;;;;;;23.03;13.43;;;;;;;6.00;54.21;98947.94;6784516;29;20234;-80
2021/11/24 16:09:54;;;;;;;20.00;13.33;;;;;;;6.29;53.41;98936.59;6784161;29;20214;-80
2021/11/24 16:13:16;;;;;;;20.47;14.27;;;;;;;5.50;54.95;98949.22;6783836;29;20227;-79
2021/11/24 16:16:39;;;;;;;21.00;14.27;;;;;;;5.34;56.02;98951.91;6783231;29;20203;-80
2021/11/24 16:20:01;;;;;;;21.47;14.17;;;;;;;6.07;54.73;98940.06;6783637;29;20210;-80
2021/11/24 16:23:23;;;;;;;23.60;14.27;;;;;;;6.36;53.52;98948.31;6783849;29;20593;-80
2021/11/24 16:26:46;;;;;;;21.13;13.00;;;;;;;6.41;53.33;98932.53;6783199;29;20223;-81
2021/11/24 16:30:12;;;;;;;21.93;13.27;;;;;;;5.97;53.61;98912.69;6785854;29;20203;-80
2021/11/24 16:33:34;;;;;;;25.27;14.40;;;;;;;5.25;55.90;98943.06;6784064;29;20239;-80
2021/11/24 16:36:56;;;;;;;25.47;14.33;;;;;;;5.03;56.12;98905.50;6782835;29;20210;-80
2021/11/24 16:40:18;;;;;;;20.50;14.03;;;;;;;4.60;57.55;98920.00;6787844;29;20261;-81
2021/11/24 16:43:41;;;;;;;23.33;13.40;;;;;;;5.41;56.30;98926.16;6790604;29;20218;-82
2021/11/24 16:47:03;;;;;;;19.90;13.37;;;;;;;6.40;54.18;98917.47;6789953;29;20227;-83
2021/11/24 16:50:25;;;;;;;22.37;14.80;;;;;;;5.34;55.72;98923.34;6786617;29;20203;-87
2021/11/24 16:53:46;;;;;;;20.80;13.77;;;;;;;5.86;56.58;98907.69;6784031;29;20703;-78
2021/11/24 16:57:08;;;;;;;20.13;12.67;;;;;;;5.76;55.29;98907.03;6782582;29;20217;-79
2021/11/24 17:00:31;;;;;;;22.20;14.17;;;;;;;5.28;56.33;98908.00;6782584;29;20631;-80
2021/11/24 17:03:53;;;;;;;19.67;12.90;;;;;;;5.63;55.48;98859.44;6783002;29;20211;-79
2021/11/24 17:07:14;;;;;;;19.97;12.87;;;;;;;5.74;54.94;98896.53;6782586;29;20238;-85
2021/11/24 17:10:36;;;;;;;21.30;13.27;;;;;;;5.89;53.88;98880.63;6781753;29;20286;-79
2021/11/24 17:13:58;;;;;;;19.77;12.93;;;;;;;5.17;55.38;98873.59;6781128;29;20687;-79
2021/11/24 17:17:21;;;;;;;20.13;13.47;;;;;;;5.20;56.03;98877.78;6781616;29;20215;-80
2021/11/24 17:20:42;;;;;;;21.73;13.83;;;;;;;4.59;57.84;98894.31;6782101;29;20230;-78
2021/11/24 17:24:05;;;;;;;24.30;14.60;;;;;;;4.57;57.63;98829.56;6781240;29;20571;-80
2021/11/24 17:27:27;;;;;;;21.63;14.20;;;;;;;4.73;58.04;98872.28;6781420;29;20452;-79
2021/11/24 17:30:50;;;;;;;20.67;14.97;;;;;;;4.73;57.12;98880.28;6781475;29;20274;-79
2021/11/24 17:34:13;;;;;;;23.30;13.00;;;;;;;5.12;56.16;98817.16;6780930;29;20230;-80
2021/11/24 17:37:34;;;;;;;19.60;12.80;;;;;;;5.12;56.86;98833.19;6781290;29;20231;-80
2021/11/24 17:40:57;;;;;;;18.83;12.90;;;;;;;5.47;54.42;98821.22;6781515;29;20236;-78
2021/11/24 17:44:18;;;;;;;19.20;13.43;;;;;;;5.28;55.57;98813.59;6781539;29;20685;-78
2021/11/24 17:47:40;;;;;;;19.20;12.63;;;;;;;5.44;55.28;98832.25;6780959;29;20232;-79
2021/11/24 17:51:03;;;;;;;20.20;12.73;;;;;;;4.96;56.73;98827.84;6787751;29;20745;-80
2021/11/24 17:54:25;;;;;;;17.93;11.60;;;;;;;4.68;57.82;98829.25;6808091;29;20687;-80
2021/11/24 17:57:47;;;;;;;18.77;11.37;;;;;;;4.55;59.12;98834.22;6785336;29;20210;-82
2021/11/24 18:01:08;;;;;;;18.10;11.80;;;;;;;4.45;58.67;98824.72;6785462;29;20711;-80
2021/11/24 18:04:30;;;;;;;19.87;13.23;;;;;;;4.57;58.86;98818.06;6781751;29;20230;-79
2021/11/24 18:07:53;;;;;;;19.67;12.23;;;;;;;4.69;58.49;98812.22;6782237;29;20597;-79
2021/11/24 18:11:15;;;;;;;17.87;12.20;;;;;;;5.13;56.49;98778.72;6782107;29;20263;-80
2021/11/24 18:14:38;;;;;;;19.80;12.30;;;;;;;4.59;57.67;98797.34;6780781;29;20211;-80
2021/11/24 18:18:00;;;;;;;17.53;11.50;;;;;;;5.05;57.25;98785.94;6781112;29;20218;-79
2021/11/24 18:21:21;;;;;;;16.77;11.03;;;;;;;5.65;55.20;98777.19;6781620;29;20239;-80
2021/11/24 18:24:44;;;;;;;17.50;11.77;;;;;;;6.00;53.22;98760.63;6780879;29;20242;-79
2021/11/24 18:28:06;;;;;;;17.00;11.37;;;;;;;6.26;52.97;98774.47;6781624;29;20228;-80
2021/11/24 18:31:28;;;;;;;14.97;11.07;;;;;;;5.55;54.90;98767.72;6781427;29;20322;-79
2021/11/24 18:34:50;;;;;;;15.63;11.43;;;;;;;4.91;54.73;98714.53;6781665;29;20213;-80
2021/11/24 18:38:11;;;;;;;17.00;11.17;;;;;;;5.07;55.32;98695.78;6782757;29;20235;-80
2021/11/24 18:41:34;;;;;;;13.47;11.17;;;;;;;5.95;53.47;98760.31;6787637;29;20731;-80
2021/11/24 18:44:56;;;;;;;18.13;10.70;;;;;;;5.51;54.85;98756.53;6786492;29;20230;-80
2021/11/24 18:48:18;;;;;;;20.47;11.80;;;;;;;6.30;53.62;98734.81;6787246;29;20234;-80
2021/11/24 18:51:40;;;;;;;16.47;11.33;;;;;;;6.18;52.14;98706.81;6786861;29;20226;-80
2021/11/24 18:55:02;;;;;;;13.83;10.77;;;;;;;6.18;52.73;98723.69;6785098;29;20239;-78
2021/11/24 18:58:28;;;;;;;17.37;11.50;;;;;;;5.98;52.47;98735.91;6785992;29;20346;-79
2021/11/24 19:01:49;;;;;;;16.60;11.03;;;;;;;5.51;54.22;98728.97;6785264;29;20726;-79
2021/11/24 19:05:13;;;;;;;16.80;11.77;;;;;;;6.07;53.23;98718.75;6783895;29;20230;-79
2021/11/24 19:08:35;;;;;;;17.30;11.20;;;;;;;6.23;52.61;98689.19;6785859;29;20234;-79
2021/11/24 19:11:56;;;;;;;19.60;12.67;;;;;;;6.57;52.31;98704.78;6786538;29;20228;-80
2021/11/24 19:15:20;;;;;;;18.20;12.63;;;;;;;5.32;54.30;98703.47;6784895;29;20218;-80
2021/11/24 19:18:42;;;;;;;15.40;10.33;;;;;;;5.93;54.17;98702.66;6785729;29;20295;-80
2021/11/24 19:22:04;;;;;;;14.13;10.57;;;;;;;5.76;52.79;98651.09;6785819;29;20730;-81
2021/11/24 19:25:26;;;;;;;16.87;10.90;;;;;;;5.86;52.89;98664.25;6784941;29;20212;-80
2021/11/24 19:28:48;;;;;;;16.27;10.70;;;;;;;6.06;53.03;98687.66;6786135;29;20600;-80
2021/11/24 19:32:12;;;;;;;16.17;11.50;;;;;;;6.09;52.71;98681.97;6785819;29;20231;-80
2021/11/24 19:35:34;;;;;;;14.83;11.33;;;;;;;5.73;53.78;98674.69;6784703;29;20214;-79
2021/11/24 19:38:56;;;;;;;16.57;11.47;;;;;;;5.15;55.53;98656.50;6785926;29;20691;-79
2021/11/24 19:42:18;;;;;;;16.27;11.50;;;;;;;4.98;56.49;98664.72;6784170;29;20230;-78
2021/11/24 19:45:41;;;;;;;16.97;10.90;;;;;;;5.34;55.64;98661.38;6783576;29;20211;-78
2021/11/24 19:49:04;;;;;;;16.50;11.77;;;;;;;5.21;55.94;98650.44;6783647;29;20309;-79
2021/11/24 19:52:26;;;;;;;15.27;11.00;;;;;;;5.39;55.91;98626.09;6784274;29;20223;-79
2021/11/24 19:55:48;;;;;;;17.03;11.40;;;;;;;5.69;55.18;98638.59;6783090;29;20744;-78
2021/11/24 19:59:10;;;;;;;17.03;11.47;;;;;;;5.55;55.65;98645.53;6783925;29;20205;-79
2021/11/24 20:02:32;;;;;;;19.43;11.70;;;;;;;5.53;56.05;98636.03;6783448;29;20793;-78
2021/11/24 20:05:55;;;;;;;17.57;11.17;;;;;;;5.63;55.18;98625.94;6783167;29;20576;-78
2021/11/24 20:09:17;;;;;;;18.33;12.77;;;;;;;5.60;55.01;98608.41;6783209;29;20231;-78
2021/11/24 20:12:39;;;;;;;16.23;11.67;;;;;;;6.06;54.13;98618.09;6783334;29;20229;-78
2021/11/24 20:16:00;;;;;;;16.80;11.63;;;;;;;6.08;53.37;98569.75;6782630;29;20209;-77